sensor_id;sensor_type;location;lat;lon;timestamp;pressure;altitude;pressure_sealevel;temperature;humidity
39729;BME280;25402;42.004;23.088;2023-05-08T00:01:44;97611.66;;;12.06;45.14
39729;BME280;25402;42.004;23.088;2023-05-08T00:04:11;97605.13;;;12.00;45.33
39729;BME280;25402;42.004;23.088;2023-05-08T00:06:38;97598.22;;;11.98;45.13
39729;BME280;25402;42.004;23.088;2023-05-08T00:09:07;97591.53;;;11.94;45.29
39729;BME280;25402;42.004;23.088;2023-05-08T00:11:34;97592.94;;;11.90;45.14
39729;BME280;25402;42.004;23.088;2023-05-08T00:14:01;97590.41;;;11.88;45.44
39729;BME280;25402;42.004;23.088;2023-05-08T00:16:27;97586.84;;;11.88;45.02
39729;BME280;25402;42.004;23.088;2023-05-08T00:18:55;97597.69;;;11.88;45.09
39729;BME280;25402;42.004;23.088;2023-05-08T00:21:21;97597.97;;;11.93;45.09
39729;BME280;25402;42.004;23.088;2023-05-08T00:23:49;97603.00;;;11.96;45.06
39729;BME280;25402;42.004;23.088;2023-05-08T00:26:17;97604.28;;;12.00;45.09
39729;BME280;25402;42.004;23.088;2023-05-08T00:28:45;97603.63;;;11.98;45.40
39729;BME280;25402;42.004;23.088;2023-05-08T00:31:12;97596.75;;;11.95;45.50
39729;BME280;25402;42.004;23.088;2023-05-08T00:33:39;97588.81;;;11.94;45.20
39729;BME280;25402;42.004;23.088;2023-05-08T00:36:06;97596.16;;;12.00;45.19
39729;BME280;25402;42.004;23.088;2023-05-08T00:38:34;97593.44;;;12.00;45.37
39729;BME280;25402;42.004;23.088;2023-05-08T00:41:01;97590.06;;;11.98;45.24
39729;BME280;25402;42.004;23.088;2023-05-08T00:43:30;97596.75;;;11.95;45.43
39729;BME280;25402;42.004;23.088;2023-05-08T00:45:59;97603.59;;;11.91;45.41
39729;BME280;25402;42.004;23.088;2023-05-08T00:48:28;97604.22;;;11.93;45.36
39729;BME280;25402;42.004;23.088;2023-05-08T00:50:56;97604.44;;;11.92;45.48
39729;BME280;25402;42.004;23.088;2023-05-08T00:53:25;97596.88;;;11.87;45.38
39729;BME280;25402;42.004;23.088;2023-05-08T00:55:52;97592.13;;;11.74;45.54
39729;BME280;25402;42.004;23.088;2023-05-08T00:58:20;97602.38;;;11.79;45.56
39729;BME280;25402;42.004;23.088;2023-05-08T01:00:49;97597.81;;;11.79;45.86
39729;BME280;25402;42.004;23.088;2023-05-08T01:03:20;97596.50;;;11.75;45.81
39729;BME280;25402;42.004;23.088;2023-05-08T01:05:49;97586.44;;;11.69;45.38
39729;BME280;25402;42.004;23.088;2023-05-08T01:08:15;97594.56;;;11.69;45.65
39729;BME280;25402;42.004;23.088;2023-05-08T01:10:47;97587.78;;;11.59;45.67
39729;BME280;25402;42.004;23.088;2023-05-08T01:13:23;97603.06;;;11.66;45.79
39729;BME280;25402;42.004;23.088;2023-05-08T01:16:03;97610.47;;;11.58;45.95
39729;BME280;25402;42.004;23.088;2023-05-08T01:18:36;97611.03;;;11.53;45.70
39729;BME280;25402;42.004;23.088;2023-05-08T01:21:11;97616.84;;;11.50;46.06
39729;BME280;25402;42.004;23.088;2023-05-08T01:23:55;97611.97;;;11.60;45.64
39729;BME280;25402;42.004;23.088;2023-05-08T01:27:04;97617.25;;;11.47;45.79
39729;BME280;25402;42.004;23.088;2023-05-08T01:30:08;97614.44;;;11.40;46.14
39729;BME280;25402;42.004;23.088;2023-05-08T01:32:41;97607.47;;;11.31;46.20
39729;BME280;25402;42.004;23.088;2023-05-08T01:35:20;97611.84;;;11.32;46.31
39729;BME280;25402;42.004;23.088;2023-05-08T01:37:56;97601.03;;;11.32;46.24
39729;BME280;25402;42.004;23.088;2023-05-08T01:40:31;97593.09;;;11.16;46.26
39729;BME280;25402;42.004;23.088;2023-05-08T01:43:08;97602.13;;;11.23;46.42
39729;BME280;25402;42.004;23.088;2023-05-08T01:45:38;97604.50;;;11.11;46.38
39729;BME280;25402;42.004;23.088;2023-05-08T01:48:10;97599.44;;;11.08;46.53
39729;BME280;25402;42.004;23.088;2023-05-08T01:50:44;97600.75;;;11.13;46.40
39729;BME280;25402;42.004;23.088;2023-05-08T01:53:18;97598.41;;;11.09;46.37
39729;BME280;25402;42.004;23.088;2023-05-08T01:55:47;97605.03;;;11.07;46.40
39729;BME280;25402;42.004;23.088;2023-05-08T01:58:15;97580.84;;;10.91;46.23
39729;BME280;25402;42.004;23.088;2023-05-08T02:00:43;97599.25;;;10.95;46.31
39729;BME280;25402;42.004;23.088;2023-05-08T02:03:13;97599.97;;;10.89;46.25
39729;BME280;25402;42.004;23.088;2023-05-08T02:05:42;97594.13;;;10.86;46.48
39729;BME280;25402;42.004;23.088;2023-05-08T02:08:11;97600.16;;;10.88;46.16
39729;BME280;25402;42.004;23.088;2023-05-08T02:10:40;97596.34;;;10.82;46.59
39729;BME280;25402;42.004;23.088;2023-05-08T02:13:09;97610.72;;;10.83;46.43
39729;BME280;25402;42.004;23.088;2023-05-08T02:15:36;97606.53;;;10.80;46.63
39729;BME280;25402;42.004;23.088;2023-05-08T02:18:06;97609.78;;;10.75;46.66
39729;BME280;25402;42.004;23.088;2023-05-08T02:20:35;97605.13;;;10.69;47.04
39729;BME280;25402;42.004;23.088;2023-05-08T02:23:05;97610.91;;;10.66;47.37
39729;BME280;25402;42.004;23.088;2023-05-08T02:25:32;97602.00;;;10.58;47.21
39729;BME280;25402;42.004;23.088;2023-05-08T02:28:01;97606.50;;;10.51;47.44
39729;BME280;25402;42.004;23.088;2023-05-08T02:30:29;97613.94;;;10.49;47.48
39729;BME280;25402;42.004;23.088;2023-05-08T02:32:57;97607.22;;;10.45;47.42
39729;BME280;25402;42.004;23.088;2023-05-08T02:35:26;97617.19;;;10.44;47.36
39729;BME280;25402;42.004;23.088;2023-05-08T02:37:57;97614.31;;;10.46;47.78
39729;BME280;25402;42.004;23.088;2023-05-08T02:40:27;97622.31;;;10.39;47.92
39729;BME280;25402;42.004;23.088;2023-05-08T02:42:55;97605.41;;;10.22;47.83
39729;BME280;25402;42.004;23.088;2023-05-08T02:45:24;97618.19;;;10.28;48.24
39729;BME280;25402;42.004;23.088;2023-05-08T02:48:00;97623.22;;;10.31;47.88
39729;BME280;25402;42.004;23.088;2023-05-08T02:50:36;97623.28;;;10.23;47.97
39729;BME280;25402;42.004;23.088;2023-05-08T02:53:10;97619.28;;;10.19;48.52
39729;BME280;25402;42.004;23.088;2023-05-08T02:55:41;97614.81;;;10.26;48.35
39729;BME280;25402;42.004;23.088;2023-05-08T02:58:15;97619.28;;;10.19;48.17
39729;BME280;25402;42.004;23.088;2023-05-08T03:00:47;97619.47;;;10.18;48.34
39729;BME280;25402;42.004;23.088;2023-05-08T03:03:20;97624.03;;;10.17;48.28
39729;BME280;25402;42.004;23.088;2023-05-08T03:05:50;97620.00;;;10.13;48.09
39729;BME280;25402;42.004;23.088;2023-05-08T03:08:23;97617.97;;;10.15;47.88
39729;BME280;25402;42.004;23.088;2023-05-08T03:10:53;97628.41;;;10.18;48.06
39729;BME280;25402;42.004;23.088;2023-05-08T03:13:21;97623.38;;;10.15;48.18
39729;BME280;25402;42.004;23.088;2023-05-08T03:15:52;97624.69;;;10.19;48.56
39729;BME280;25402;42.004;23.088;2023-05-08T03:18:24;97632.16;;;10.17;48.42
39729;BME280;25402;42.004;23.088;2023-05-08T03:20:54;97636.63;;;10.25;48.22
39729;BME280;25402;42.004;23.088;2023-05-08T03:23:28;97633.75;;;10.26;48.10
39729;BME280;25402;42.004;23.088;2023-05-08T03:25:57;97632.72;;;10.27;47.64
39729;BME280;25402;42.004;23.088;2023-05-08T03:28:25;97644.38;;;10.28;48.30
39729;BME280;25402;42.004;23.088;2023-05-08T03:30:53;97644.19;;;10.29;48.44
39729;BME280;25402;42.004;23.088;2023-05-08T03:33:22;97640.13;;;10.33;48.26
39729;BME280;25402;42.004;23.088;2023-05-08T03:35:50;97640.03;;;10.41;48.07
39729;BME280;25402;42.004;23.088;2023-05-08T03:38:17;97641.72;;;10.42;47.93
39729;BME280;25402;42.004;23.088;2023-05-08T03:40:45;97642.69;;;10.50;47.94
39729;BME280;25402;42.004;23.088;2023-05-08T03:43:14;97653.13;;;10.53;47.70
39729;BME280;25402;42.004;23.088;2023-05-08T03:45:42;97652.75;;;10.56;47.55
39729;BME280;25402;42.004;23.088;2023-05-08T03:48:10;97643.34;;;10.52;47.95
39729;BME280;25402;42.004;23.088;2023-05-08T03:50:38;97653.72;;;10.63;48.12
39729;BME280;25402;42.004;23.088;2023-05-08T03:53:05;97646.63;;;10.62;48.14
39729;BME280;25402;42.004;23.088;2023-05-08T03:55:32;97660.53;;;10.73;47.97
39729;BME280;25402;42.004;23.088;2023-05-08T03:58:04;97660.47;;;10.82;47.88
39729;BME280;25402;42.004;23.088;2023-05-08T04:00:42;97665.13;;;10.88;48.00
39729;BME280;25402;42.004;23.088;2023-05-08T04:03:23;97659.16;;;10.92;47.60
39729;BME280;25402;42.004;23.088;2023-05-08T04:05:56;97669.25;;;10.98;47.34
39729;BME280;25402;42.004;23.088;2023-05-08T04:08:28;97657.44;;;10.99;47.47
39729;BME280;25402;42.004;23.088;2023-05-08T04:11:05;97654.41;;;10.94;47.67
39729;BME280;25402;42.004;23.088;2023-05-08T04:13:48;97680.97;;;11.14;47.68
39729;BME280;25402;42.004;23.088;2023-05-08T04:16:20;97674.13;;;11.18;47.54
39729;BME280;25402;42.004;23.088;2023-05-08T04:18:49;97677.13;;;11.23;47.36
39729;BME280;25402;42.004;23.088;2023-05-08T04:21:22;97676.19;;;11.30;47.25
39729;BME280;25402;42.004;23.088;2023-05-08T04:23:51;97679.09;;;11.29;47.29
39729;BME280;25402;42.004;23.088;2023-05-08T04:26:19;97674.34;;;11.31;47.37
39729;BME280;25402;42.004;23.088;2023-05-08T04:28:48;97680.66;;;11.38;46.96
39729;BME280;25402;42.004;23.088;2023-05-08T04:31:15;97663.69;;;11.29;47.00
39729;BME280;25402;42.004;23.088;2023-05-08T04:33:43;97684.97;;;11.47;47.10
39729;BME280;25402;42.004;23.088;2023-05-08T04:36:11;97681.78;;;11.58;46.63
39729;BME280;25402;42.004;23.088;2023-05-08T04:38:39;97682.69;;;11.65;46.50
39729;BME280;25402;42.004;23.088;2023-05-08T04:41:06;97665.97;;;11.62;46.53
39729;BME280;25402;42.004;23.088;2023-05-08T04:43:33;97673.69;;;11.79;46.29
39729;BME280;25402;42.004;23.088;2023-05-08T04:46:03;97665.34;;;11.81;46.21
39729;BME280;25402;42.004;23.088;2023-05-08T04:48:30;97678.66;;;12.12;46.23
39729;BME280;25402;42.004;23.088;2023-05-08T04:50:58;97686.69;;;12.20;46.47
39729;BME280;25402;42.004;23.088;2023-05-08T04:53:25;97668.81;;;12.26;46.30
39729;BME280;25402;42.004;23.088;2023-05-08T04:55:52;97674.34;;;12.39;46.22
39729;BME280;25402;42.004;23.088;2023-05-08T04:58:19;97679.81;;;12.45;46.03
39729;BME280;25402;42.004;23.088;2023-05-08T05:00:45;97671.59;;;12.60;45.79
39729;BME280;25402;42.004;23.088;2023-05-08T05:03:14;97661.19;;;12.64;45.50
39729;BME280;25402;42.004;23.088;2023-05-08T05:05:41;97668.94;;;12.88;45.22
39729;BME280;25402;42.004;23.088;2023-05-08T05:08:08;97664.84;;;12.99;45.38
39729;BME280;25402;42.004;23.088;2023-05-08T05:10:36;97649.38;;;12.99;45.07
39729;BME280;25402;42.004;23.088;2023-05-08T05:13:03;97664.59;;;13.22;44.84
39729;BME280;25402;42.004;23.088;2023-05-08T05:15:30;97653.59;;;13.36;44.24
39729;BME280;25402;42.004;23.088;2023-05-08T05:17:57;97656.75;;;13.46;44.19
39729;BME280;25402;42.004;23.088;2023-05-08T05:20:25;97652.63;;;13.50;44.08
39729;BME280;25402;42.004;23.088;2023-05-08T05:22:52;97658.31;;;13.62;43.92
39729;BME280;25402;42.004;23.088;2023-05-08T05:25:19;97657.56;;;13.81;43.86
39729;BME280;25402;42.004;23.088;2023-05-08T05:27:45;97650.28;;;14.02;43.69
39729;BME280;25402;42.004;23.088;2023-05-08T05:30:13;97648.03;;;14.25;42.95
39729;BME280;25402;42.004;23.088;2023-05-08T05:32:39;97652.50;;;14.52;42.45
39729;BME280;25402;42.004;23.088;2023-05-08T05:35:08;97651.66;;;14.78;41.36
39729;BME280;25402;42.004;23.088;2023-05-08T05:37:36;97650.41;;;15.07;40.83
39729;BME280;25402;42.004;23.088;2023-05-08T05:40:04;97649.50;;;15.40;40.01
39729;BME280;25402;42.004;23.088;2023-05-08T05:42:31;97644.56;;;15.68;39.64
39729;BME280;25402;42.004;23.088;2023-05-08T05:44:58;97631.44;;;15.90;39.00
39729;BME280;25402;42.004;23.088;2023-05-08T05:47:26;97644.47;;;16.26;38.10
39729;BME280;25402;42.004;23.088;2023-05-08T05:49:53;97637.53;;;16.61;37.28
39729;BME280;25402;42.004;23.088;2023-05-08T05:52:20;97639.41;;;16.86;36.90
39729;BME280;25402;42.004;23.088;2023-05-08T05:54:48;97636.19;;;16.95;36.23
39729;BME280;25402;42.004;23.088;2023-05-08T05:57:15;97634.16;;;17.09;35.59
39729;BME280;25402;42.004;23.088;2023-05-08T05:59:42;97629.50;;;17.10;36.13
39729;BME280;25402;42.004;23.088;2023-05-08T06:02:08;97634.34;;;17.32;35.44
39729;BME280;25402;42.004;23.088;2023-05-08T06:04:38;97631.75;;;17.74;35.01
39729;BME280;25402;42.004;23.088;2023-05-08T06:07:05;97635.69;;;17.96;34.75
39729;BME280;25402;42.004;23.088;2023-05-08T06:09:32;97629.84;;;18.23;34.22
39729;BME280;25402;42.004;23.088;2023-05-08T06:12:00;97624.38;;;18.64;33.44
39729;BME280;25402;42.004;23.088;2023-05-08T06:14:27;97621.53;;;18.94;32.77
39729;BME280;25402;42.004;23.088;2023-05-08T06:16:54;97631.41;;;18.95;32.58
39729;BME280;25402;42.004;23.088;2023-05-08T06:19:21;97635.00;;;18.96;32.81
39729;BME280;25402;42.004;23.088;2023-05-08T06:21:49;97622.22;;;18.78;32.94
39729;BME280;25402;42.004;23.088;2023-05-08T06:24:16;97612.34;;;18.65;32.84
39729;BME280;25402;42.004;23.088;2023-05-08T06:26:43;97626.50;;;18.51;33.31
39729;BME280;25402;42.004;23.088;2023-05-08T06:29:12;97618.75;;;18.59;33.25
39729;BME280;25402;42.004;23.088;2023-05-08T06:31:39;97624.13;;;18.78;33.25
39729;BME280;25402;42.004;23.088;2023-05-08T06:34:06;97615.13;;;19.12;32.49
39729;BME280;25402;42.004;23.088;2023-05-08T06:36:33;97624.22;;;19.64;31.50
39729;BME280;25402;42.004;23.088;2023-05-08T06:39:01;97627.75;;;19.88;30.99
39729;BME280;25402;42.004;23.088;2023-05-08T06:41:29;97621.78;;;20.20;30.58
39729;BME280;25402;42.004;23.088;2023-05-08T06:43:56;97607.25;;;20.36;30.21
39729;BME280;25402;42.004;23.088;2023-05-08T06:46:24;97608.97;;;20.70;29.95
39729;BME280;25402;42.004;23.088;2023-05-08T06:48:51;97603.03;;;20.95;29.46
39729;BME280;25402;42.004;23.088;2023-05-08T06:51:18;97601.56;;;21.26;29.50
39729;BME280;25402;42.004;23.088;2023-05-08T06:53:47;97599.09;;;21.46;29.29
39729;BME280;25402;42.004;23.088;2023-05-08T06:56:14;97597.75;;;21.66;29.00
39729;BME280;25402;42.004;23.088;2023-05-08T06:58:41;97601.34;;;21.93;28.82
39729;BME280;25402;42.004;23.088;2023-05-08T07:01:08;97575.09;;;22.07;28.13
39729;BME280;25402;42.004;23.088;2023-05-08T07:03:36;97602.53;;;22.24;28.01
39729;BME280;25402;42.004;23.088;2023-05-08T07:06:06;97607.84;;;22.31;28.29
39729;BME280;25402;42.004;23.088;2023-05-08T07:08:33;97602.53;;;22.51;27.67
39729;BME280;25402;42.004;23.088;2023-05-08T07:11:00;97590.03;;;22.70;27.33
39729;BME280;25402;42.004;23.088;2023-05-08T07:13:27;97592.38;;;22.88;27.10
39729;BME280;25402;42.004;23.088;2023-05-08T07:15:54;97582.56;;;23.03;27.31
39729;BME280;25402;42.004;23.088;2023-05-08T07:18:21;97592.63;;;23.19;26.96
39729;BME280;25402;42.004;23.088;2023-05-08T07:20:49;97591.13;;;23.48;26.14
39729;BME280;25402;42.004;23.088;2023-05-08T07:23:16;97589.53;;;23.57;25.99
39729;BME280;25402;42.004;23.088;2023-05-08T07:25:43;97589.63;;;23.73;26.40
39729;BME280;25402;42.004;23.088;2023-05-08T07:28:10;97587.19;;;23.86;25.78
39729;BME280;25402;42.004;23.088;2023-05-08T07:30:37;97577.81;;;23.98;25.90
39729;BME280;25402;42.004;23.088;2023-05-08T07:33:04;97570.38;;;24.13;25.67
39729;BME280;25402;42.004;23.088;2023-05-08T07:35:31;97579.00;;;24.22;25.13
39729;BME280;25402;42.004;23.088;2023-05-08T07:37:59;97573.16;;;24.18;25.28
39729;BME280;25402;42.004;23.088;2023-05-08T07:40:26;97576.72;;;24.04;25.45
39729;BME280;25402;42.004;23.088;2023-05-08T07:42:53;97573.94;;;23.99;25.44
39729;BME280;25402;42.004;23.088;2023-05-08T07:45:20;97564.59;;;24.20;25.85
39729;BME280;25402;42.004;23.088;2023-05-08T07:47:50;97566.03;;;24.38;25.27
39729;BME280;25402;42.004;23.088;2023-05-08T07:50:17;97569.34;;;24.45;25.35
39729;BME280;25402;42.004;23.088;2023-05-08T07:52:45;97568.25;;;24.61;25.40
39729;BME280;25402;42.004;23.088;2023-05-08T07:55:13;97554.44;;;24.71;24.35
39729;BME280;25402;42.004;23.088;2023-05-08T07:57:41;97551.13;;;24.84;24.25
39729;BME280;25402;42.004;23.088;2023-05-08T08:00:10;97551.13;;;24.84;23.53
39729;BME280;25402;42.004;23.088;2023-05-08T08:02:38;97553.31;;;25.03;23.84
39729;BME280;25402;42.004;23.088;2023-05-08T08:05:05;97543.31;;;25.12;23.55
39729;BME280;25402;42.004;23.088;2023-05-08T08:07:32;97538.59;;;25.27;23.72
39729;BME280;25402;42.004;23.088;2023-05-08T08:10:00;97540.97;;;25.54;22.71
39729;BME280;25402;42.004;23.088;2023-05-08T08:12:29;97543.94;;;25.73;22.75
39729;BME280;25402;42.004;23.088;2023-05-08T08:14:56;97542.84;;;25.74;23.20
39729;BME280;25402;42.004;23.088;2023-05-08T08:17:23;97542.09;;;25.53;22.97
39729;BME280;25402;42.004;23.088;2023-05-08T08:19:50;97536.88;;;25.42;23.40
39729;BME280;25402;42.004;23.088;2023-05-08T08:22:17;97537.94;;;25.56;23.52
39729;BME280;25402;42.004;23.088;2023-05-08T08:24:44;97536.19;;;25.80;22.81
39729;BME280;25402;42.004;23.088;2023-05-08T08:27:12;97531.34;;;26.01;22.15
39729;BME280;25402;42.004;23.088;2023-05-08T08:29:40;97540.09;;;26.18;21.71
39729;BME280;25402;42.004;23.088;2023-05-08T08:32:07;97532.56;;;26.29;21.58
39729;BME280;25402;42.004;23.088;2023-05-08T08:34:34;97525.66;;;26.21;20.72
39729;BME280;25402;42.004;23.088;2023-05-08T08:37:03;97518.75;;;26.19;20.79
39729;BME280;25402;42.004;23.088;2023-05-08T08:39:31;97528.34;;;26.37;21.05
39729;BME280;25402;42.004;23.088;2023-05-08T08:41:58;97517.53;;;26.35;21.99
39729;BME280;25402;42.004;23.088;2023-05-08T08:44:25;97516.59;;;26.11;21.81
39729;BME280;25402;42.004;23.088;2023-05-08T08:46:54;97514.59;;;26.16;21.64
39729;BME280;25402;42.004;23.088;2023-05-08T08:49:27;97510.94;;;26.26;22.08
39729;BME280;25402;42.004;23.088;2023-05-08T08:51:58;97506.34;;;26.45;22.14
39729;BME280;25402;42.004;23.088;2023-05-08T08:54:29;97500.34;;;26.67;21.62
39729;BME280;25402;42.004;23.088;2023-05-08T08:57:00;97498.84;;;26.80;21.66
39729;BME280;25402;42.004;23.088;2023-05-08T08:59:31;97505.78;;;26.82;21.33
39729;BME280;25402;42.004;23.088;2023-05-08T09:02:05;97506.09;;;27.05;21.11
39729;BME280;25402;42.004;23.088;2023-05-08T09:04:33;97504.88;;;27.16;21.35
39729;BME280;25402;42.004;23.088;2023-05-08T09:07:00;97510.28;;;27.31;20.75
39729;BME280;25402;42.004;23.088;2023-05-08T09:09:29;97505.00;;;27.53;20.73
39729;BME280;25402;42.004;23.088;2023-05-08T09:11:58;97500.91;;;27.69;20.54
39729;BME280;25402;42.004;23.088;2023-05-08T09:14:25;97501.16;;;27.92;20.60
39729;BME280;25402;42.004;23.088;2023-05-08T09:16:52;97501.75;;;28.08;19.99
39729;BME280;25402;42.004;23.088;2023-05-08T09:19:22;97507.47;;;28.16;20.43
39729;BME280;25402;42.004;23.088;2023-05-08T09:21:49;97515.66;;;28.08;19.64
39729;BME280;25402;42.004;23.088;2023-05-08T09:24:16;97511.13;;;27.74;20.33
39729;BME280;25402;42.004;23.088;2023-05-08T09:26:43;97517.78;;;27.30;21.04
39729;BME280;25402;42.004;23.088;2023-05-08T09:29:12;97509.34;;;26.88;21.23
39729;BME280;25402;42.004;23.088;2023-05-08T09:31:42;97518.81;;;26.48;21.94
39729;BME280;25402;42.004;23.088;2023-05-08T09:34:10;97515.34;;;25.18;22.70
39729;BME280;25402;42.004;23.088;2023-05-08T09:36:39;97519.81;;;24.74;23.34
39729;BME280;25402;42.004;23.088;2023-05-08T09:39:09;97526.25;;;24.39;23.60
39729;BME280;25402;42.004;23.088;2023-05-08T09:41:38;97523.34;;;23.83;24.41
39729;BME280;25402;42.004;23.088;2023-05-08T09:44:06;97530.59;;;23.27;24.98
39729;BME280;25402;42.004;23.088;2023-05-08T09:46:33;97529.09;;;22.67;26.17
39729;BME280;25402;42.004;23.088;2023-05-08T09:49:01;97532.50;;;22.47;27.03
39729;BME280;25402;42.004;23.088;2023-05-08T09:51:29;97534.59;;;22.35;28.07
39729;BME280;25402;42.004;23.088;2023-05-08T09:53:58;97539.50;;;22.28;29.83
39729;BME280;25402;42.004;23.088;2023-05-08T09:56:33;97537.59;;;21.79;30.95
39729;BME280;25402;42.004;23.088;2023-05-08T09:59:01;97544.50;;;21.55;32.31
39729;BME280;25402;42.004;23.088;2023-05-08T10:01:30;97529.09;;;21.37;33.35
39729;BME280;25402;42.004;23.088;2023-05-08T10:03:57;97536.56;;;20.98;34.13
39729;BME280;25402;42.004;23.088;2023-05-08T10:06:25;97542.28;;;20.80;34.84
39729;BME280;25402;42.004;23.088;2023-05-08T10:09:21;97524.75;;;20.64;35.88
39729;BME280;25402;42.004;23.088;2023-05-08T10:11:49;97531.25;;;20.41;36.07
39729;BME280;25402;42.004;23.088;2023-05-08T10:14:18;97544.31;;;20.34;35.65
39729;BME280;25402;42.004;23.088;2023-05-08T10:16:46;97517.56;;;19.96;34.64
39729;BME280;25402;42.004;23.088;2023-05-08T10:19:15;97521.91;;;20.09;34.38
39729;BME280;25402;42.004;23.088;2023-05-08T10:21:45;97513.41;;;20.10;35.26
39729;BME280;25402;42.004;23.088;2023-05-08T10:24:14;97519.16;;;20.26;36.41
39729;BME280;25402;42.004;23.088;2023-05-08T10:26:50;97524.16;;;20.29;39.53
39729;BME280;25402;42.004;23.088;2023-05-08T10:29:22;97523.66;;;20.32;39.88
39729;BME280;25402;42.004;23.088;2023-05-08T10:31:53;97516.16;;;20.27;38.98
39729;BME280;25402;42.004;23.088;2023-05-08T10:34:21;97513.91;;;20.24;38.27
39729;BME280;25402;42.004;23.088;2023-05-08T10:36:49;97519.06;;;20.21;38.84
39729;BME280;25402;42.004;23.088;2023-05-08T10:39:18;97511.00;;;20.14;39.63
39729;BME280;25402;42.004;23.088;2023-05-08T10:41:47;97506.34;;;20.15;39.27
39729;BME280;25402;42.004;23.088;2023-05-08T10:44:15;97506.84;;;20.11;39.29
39729;BME280;25402;42.004;23.088;2023-05-08T10:46:49;97515.72;;;20.02;39.17
39729;BME280;25402;42.004;23.088;2023-05-08T10:49:24;97511.00;;;19.97;39.27
39729;BME280;25402;42.004;23.088;2023-05-08T10:52:06;97497.00;;;19.99;38.84
39729;BME280;25402;42.004;23.088;2023-05-08T10:57:32;97476.03;;;19.64;38.80
39729;BME280;25402;42.004;23.088;2023-05-08T10:59:58;97464.13;;;19.30;38.77
39729;BME280;25402;42.004;23.088;2023-05-08T11:02:26;97451.81;;;18.93;40.36
39729;BME280;25402;42.004;23.088;2023-05-08T11:04:54;97451.03;;;18.34;40.89
39729;BME280;25402;42.004;23.088;2023-05-08T11:07:29;97449.91;;;17.47;42.73
39729;BME280;25402;42.004;23.088;2023-05-08T11:10:06;97456.78;;;17.49;43.04
39729;BME280;25402;42.004;23.088;2023-05-08T11:12:47;97478.75;;;17.61;42.45
39729;BME280;25402;42.004;23.088;2023-05-08T11:15:15;97481.72;;;18.13;43.60
39729;BME280;25402;42.004;23.088;2023-05-08T11:17:52;97478.06;;;18.77;42.69
39729;BME280;25402;42.004;23.088;2023-05-08T11:20:22;97463.59;;;19.17;43.25
39729;BME280;25402;42.004;23.088;2023-05-08T11:23:13;97473.75;;;19.73;42.93
39729;BME280;25402;42.004;23.088;2023-05-08T11:25:46;97464.13;;;19.87;40.57
39729;BME280;25402;42.004;23.088;2023-05-08T11:28:16;97450.91;;;20.18;39.44
39729;BME280;25402;42.004;23.088;2023-05-08T11:30:43;97450.19;;;20.77;37.85
39729;BME280;25402;42.004;23.088;2023-05-08T11:33:12;97446.06;;;21.45;36.05
39729;BME280;25402;42.004;23.088;2023-05-08T11:35:47;97441.84;;;22.13;34.43
39729;BME280;25402;42.004;23.088;2023-05-08T11:38:20;97440.34;;;22.75;33.58
39729;BME280;25402;42.004;23.088;2023-05-08T11:40:48;97437.31;;;23.29;31.92
39729;BME280;25402;42.004;23.088;2023-05-08T11:43:25;97437.66;;;23.52;30.71
39729;BME280;25402;42.004;23.088;2023-05-08T11:45:53;97428.88;;;23.96;29.78
39729;BME280;25402;42.004;23.088;2023-05-08T11:48:20;97421.16;;;24.13;30.76
39729;BME280;25402;42.004;23.088;2023-05-08T11:50:46;97422.28;;;24.38;30.80
39729;BME280;25402;42.004;23.088;2023-05-08T11:53:14;97416.13;;;24.76;28.86
39729;BME280;25402;42.004;23.088;2023-05-08T11:55:41;97419.06;;;25.10;28.87
39729;BME280;25402;42.004;23.088;2023-05-08T11:58:11;97409.31;;;25.28;27.73
39729;BME280;25402;42.004;23.088;2023-05-08T12:00:44;97406.44;;;25.48;27.81
39729;BME280;25402;42.004;23.088;2023-05-08T12:03:12;97406.81;;;25.71;27.05
39729;BME280;25402;42.004;23.088;2023-05-08T12:05:39;97403.41;;;25.89;27.05
39729;BME280;25402;42.004;23.088;2023-05-08T12:08:06;97404.38;;;26.03;26.70
39729;BME280;25402;42.004;23.088;2023-05-08T12:10:38;97396.78;;;25.85;25.19
39729;BME280;25402;42.004;23.088;2023-05-08T12:13:14;97396.09;;;25.64;26.15
39729;BME280;25402;42.004;23.088;2023-05-08T12:15:43;97401.94;;;25.57;26.27
39729;BME280;25402;42.004;23.088;2023-05-08T12:18:10;97402.03;;;25.86;25.66
39729;BME280;25402;42.004;23.088;2023-05-08T12:20:37;97400.72;;;25.69;24.89
39729;BME280;25402;42.004;23.088;2023-05-08T12:23:04;97401.41;;;25.50;25.62
39729;BME280;25402;42.004;23.088;2023-05-08T12:25:31;97388.53;;;25.25;26.24
39729;BME280;25402;42.004;23.088;2023-05-08T12:27:58;97395.25;;;25.09;26.21
39729;BME280;25402;42.004;23.088;2023-05-08T12:30:25;97370.75;;;24.82;26.38
39729;BME280;25402;42.004;23.088;2023-05-08T12:32:54;97388.19;;;24.83;26.95
39729;BME280;25402;42.004;23.088;2023-05-08T12:35:21;97387.88;;;24.74;27.39
39729;BME280;25402;42.004;23.088;2023-05-08T12:37:49;97375.22;;;24.58;27.20
39729;BME280;25402;42.004;23.088;2023-05-08T12:40:24;97377.97;;;24.58;27.67
39729;BME280;25402;42.004;23.088;2023-05-08T12:42:51;97370.81;;;24.47;27.42
39729;BME280;25402;42.004;23.088;2023-05-08T12:45:18;97373.03;;;24.45;27.48
39729;BME280;25402;42.004;23.088;2023-05-08T12:47:46;97356.16;;;24.51;27.63
39729;BME280;25402;42.004;23.088;2023-05-08T12:50:15;97363.31;;;24.57;27.16
39729;BME280;25402;42.004;23.088;2023-05-08T12:52:43;97359.78;;;24.47;27.36
39729;BME280;25402;42.004;23.088;2023-05-08T12:55:23;97363.13;;;24.39;27.62
39729;BME280;25402;42.004;23.088;2023-05-08T12:57:58;97350.69;;;24.21;26.61
39729;BME280;25402;42.004;23.088;2023-05-08T13:00:33;97336.91;;;24.06;27.13
39729;BME280;25402;42.004;23.088;2023-05-08T13:03:00;97330.00;;;23.88;26.42
39729;BME280;25402;42.004;23.088;2023-05-08T13:05:28;97346.56;;;23.98;26.76